Time;durP1;ratioP1;P1;durP2;ratioP2;P2;SDS_P1;SDS_P2;PMS_P1;PMS_P2;Temp;Humidity;BMP_temperature;BMP_pressure;BME280_temperature;BME280_humidity;BME280_pressure;Samples;Min_cycle;Max_cycle;Signal;HPM_P1;HPM_P2
2023/08/05 00:01:06;;;;;;;6.22;3.35;;;;;;;;;;5013202;28;20034;-78
2023/08/05 00:03:32;;;;;;;6.03;3.42;;;;;;;;;;5012947;28;20064;-78
2023/08/05 00:05:57;;;;;;;5.43;3.25;;;;;;;;;;5032142;28;20041;-78
2023/08/05 00:08:24;;;;;;;5.50;2.90;;;;;;;;;;5015376;28;20030;-78
2023/08/05 00:10:49;;;;;;;6.13;2.95;;;;;;;;;;5021798;28;20136;-78
2023/08/05 00:13:14;;;;;;;4.85;3.10;;;;;;;;;;5017393;28;20073;-78
2023/08/05 00:15:39;;;;;;;4.80;3.17;;;;;;;;;;5017332;28;20076;-78
2023/08/05 00:18:05;;;;;;;6.18;3.25;;;;;;;;;;5017211;28;20092;-78
2023/08/05 00:20:30;;;;;;;4.50;3.13;;;;;;;;;;5016652;28;20037;-78
2023/08/05 00:22:55;;;;;;;4.65;2.90;;;;;;;;;;5020610;28;20332;-78
2023/08/05 00:25:20;;;;;;;3.92;2.47;;;;;;;;;;5016748;28;20044;-78
2023/08/05 00:27:46;;;;;;;4.93;2.97;;;;;;;;;;5017253;28;20057;-78
2023/08/05 00:30:11;;;;;;;3.97;2.50;;;;;;;;;;5016665;28;20085;-78
2023/08/05 00:32:36;;;;;;;5.85;4.30;;;;;;;;;;5015806;28;20124;-78
2023/08/05 00:35:05;;;;;;;5.13;2.92;;;;;;;;;;5032053;28;20033;-78
2023/08/05 00:37:30;;;;;;;4.55;2.90;;;;;;;;;;5023194;28;20068;-78
2023/08/05 00:39:56;;;;;;;6.03;3.10;;;;;;;;;;5016036;28;20057;-78
2023/08/05 00:42:21;;;;;;;5.15;3.40;;;;;;;;;;5031745;28;20041;-78
2023/08/05 00:44:46;;;;;;;4.95;3.30;;;;;;;;;;5015373;28;20025;-78
2023/08/05 00:47:15;;;;;;;6.20;3.78;;;;;;;;;;5024109;28;20037;-78
2023/08/05 00:49:40;;;;;;;4.40;2.65;;;;;;;;;;5016617;28;20026;-78
2023/08/05 00:52:06;;;;;;;3.63;2.50;;;;;;;;;;5019389;28;20780;-78
2023/08/05 00:54:32;;;;;;;6.03;3.03;;;;;;;;;;5032182;28;20048;-78
2023/08/05 00:56:57;;;;;;;4.05;2.92;;;;;;;;;;5025546;28;20503;-78
2023/08/05 00:59:22;;;;;;;6.40;2.85;;;;;;;;;;5014653;28;20510;-78
2023/08/05 01:01:47;;;;;;;7.37;3.23;;;;;;;;;;5031400;28;20066;-78
2023/08/05 01:04:12;;;;;;;5.07;3.10;;;;;;;;;;5027385;28;20276;-78
2023/08/05 01:06:39;;;;;;;4.50;2.88;;;;;;;;;;5016096;28;20033;-78
2023/08/05 01:09:04;;;;;;;3.67;2.20;;;;;;;;;;5015417;28;20045;-78
2023/08/05 01:11:29;;;;;;;3.83;2.63;;;;;;;;;;5015610;28;20030;-78
2023/08/05 01:13:55;;;;;;;5.07;2.38;;;;;;;;;;5016186;28;20443;-78
2023/08/05 01:16:20;;;;;;;4.40;2.50;;;;;;;;;;5023236;28;20037;-78
2023/08/05 01:18:45;;;;;;;3.05;1.75;;;;;;;;;;5015401;28;20492;-78
2023/08/05 01:21:22;;;;;;;3.95;2.28;;;;;;;;;;5016497;28;20030;-77
2023/08/05 01:24:05;;;;;;;5.00;2.13;;;;;;;;;;5030077;28;20396;-78
2023/08/05 01:26:31;;;;;;;5.43;2.53;;;;;;;;;;5011639;28;20551;-78
2023/08/05 01:28:56;;;;;;;4.30;2.25;;;;;;;;;;5015228;28;20077;-79
2023/08/05 01:31:22;;;;;;;4.45;2.25;;;;;;;;;;5016551;28;20025;-78
2023/08/05 01:33:47;;;;;;;4.60;2.25;;;;;;;;;;5032094;28;20030;-78
2023/08/05 01:36:20;;;;;;;3.70;2.13;;;;;;;;;;5016294;28;20030;-78
2023/08/05 01:38:46;;;;;;;4.00;2.15;;;;;;;;;;5021285;28;20120;-78
2023/08/05 01:41:11;;;;;;;3.67;2.00;;;;;;;;;;5022115;28;20026;-78
2023/08/05 01:43:37;;;;;;;3.85;1.88;;;;;;;;;;5030212;28;20026;-77
2023/08/05 01:46:02;;;;;;;4.05;1.88;;;;;;;;;;5013442;28;20460;-78
2023/08/05 01:48:27;;;;;;;3.83;2.13;;;;;;;;;;5029823;28;20527;-78
2023/08/05 01:50:52;;;;;;;6.90;1.90;;;;;;;;;;5013848;28;20280;-78
2023/08/05 01:53:17;;;;;;;4.55;1.73;;;;;;;;;;5031485;28;20040;-78
2023/08/05 01:55:42;;;;;;;4.90;1.80;;;;;;;;;;5028487;28;20030;-78
2023/08/05 01:58:08;;;;;;;4.57;1.95;;;;;;;;;;5029343;28;20037;-78
2023/08/05 02:00:33;;;;;;;4.95;1.73;;;;;;;;;;5029102;28;20064;-78
2023/08/05 02:02:59;;;;;;;3.33;1.60;;;;;;;;;;5014267;28;20155;-78
2023/08/05 02:05:24;;;;;;;2.53;1.50;;;;;;;;;;5015443;28;20053;-78
2023/08/05 02:07:50;;;;;;;2.83;1.42;;;;;;;;;;5030367;28;20316;-78
2023/08/05 02:10:15;;;;;;;3.90;1.70;;;;;;;;;;4997243;28;20033;-78
2023/08/05 02:12:40;;;;;;;5.13;1.80;;;;;;;;;;5030238;28;20496;-78
2023/08/05 02:15:06;;;;;;;3.65;1.70;;;;;;;;;;5015018;28;20037;-78
2023/08/05 02:17:31;;;;;;;3.78;1.60;;;;;;;;;;5014905;28;20028;-78
2023/08/05 02:19:56;;;;;;;3.67;1.77;;;;;;;;;;5014653;28;20029;-78
2023/08/05 02:22:21;;;;;;;3.55;1.60;;;;;;;;;;5014772;28;20072;-78
2023/08/05 02:24:46;;;;;;;3.25;1.42;;;;;;;;;;5016292;28;20121;-78
2023/08/05 02:27:12;;;;;;;4.40;2.10;;;;;;;;;;5014347;28;20037;-78
2023/08/05 02:29:38;;;;;;;3.17;1.50;;;;;;;;;;5014835;28;20045;-78
2023/08/05 02:32:03;;;;;;;3.50;1.60;;;;;;;;;;5015256;28;20148;-78
2023/08/05 02:34:28;;;;;;;4.45;2.00;;;;;;;;;;5014103;28;20543;-78
2023/08/05 02:36:53;;;;;;;4.37;1.90;;;;;;;;;;5014752;28;20484;-78
2023/08/05 02:39:19;;;;;;;3.83;1.50;;;;;;;;;;5014307;28;20367;-78
2023/08/05 02:41:46;;;;;;;3.30;1.60;;;;;;;;;;5015596;28;20296;-78
2023/08/05 02:44:11;;;;;;;3.70;1.70;;;;;;;;;;5030067;28;20025;-78
2023/08/05 02:46:36;;;;;;;2.90;1.38;;;;;;;;;;5014556;28;20049;-78
2023/08/05 02:49:01;;;;;;;2.92;1.30;;;;;;;;;;5009519;28;20022;-78
2023/08/05 02:51:28;;;;;;;4.03;1.48;;;;;;;;;;5013868;28;20508;-78
2023/08/05 02:53:53;;;;;;;3.90;1.73;;;;;;;;;;5014893;28;20030;-78
2023/08/05 02:56:18;;;;;;;3.63;1.60;;;;;;;;;;5014495;28;20049;-78
2023/08/05 02:58:43;;;;;;;3.75;1.80;;;;;;;;;;5013595;28;20033;-78
2023/08/05 03:01:09;;;;;;;3.97;1.63;;;;;;;;;;5013286;28;20029;-78
2023/08/05 03:03:35;;;;;;;2.83;1.50;;;;;;;;;;5014144;28;20066;-78
2023/08/05 03:06:00;;;;;;;3.17;1.55;;;;;;;;;;5013734;28;20037;-78
2023/08/05 03:08:26;;;;;;;3.38;1.67;;;;;;;;;;5021004;28;20112;-78
2023/08/05 03:11:01;;;;;;;3.92;1.60;;;;;;;;;;5012068;28;20431;-78
2023/08/05 03:13:27;;;;;;;5.00;1.58;;;;;;;;;;5028918;28;20400;-78
2023/08/05 03:15:54;;;;;;;5.70;1.90;;;;;;;;;;5028548;28;20057;-78
2023/08/05 03:18:20;;;;;;;2.03;1.30;;;;;;;;;;5028813;28;20448;-78
2023/08/05 03:20:45;;;;;;;6.53;2.65;;;;;;;;;;5027598;28;20121;-78
2023/08/05 03:23:14;;;;;;;3.85;1.92;;;;;;;;;;5028168;28;20460;-78
2023/08/05 03:25:43;;;;;;;2.85;1.65;;;;;;;;;;5027952;28;20034;-78
2023/08/05 03:28:08;;;;;;;4.35;1.70;;;;;;;;;;5012163;28;20406;-78
2023/08/05 03:30:37;;;;;;;4.82;1.92;;;;;;;;;;5011093;28;20026;-78
2023/08/05 03:33:03;;;;;;;3.92;2.28;;;;;;;;;;5011671;28;20053;-79
2023/08/05 03:35:31;;;;;;;5.53;1.90;;;;;;;;;;5012293;28;20030;-78
2023/08/05 03:37:57;;;;;;;4.30;2.05;;;;;;;;;;5011193;28;20064;-78
2023/08/05 03:40:23;;;;;;;3.65;2.10;;;;;;;;;;5010326;28;20053;-78
2023/08/05 03:42:48;;;;;;;3.28;1.88;;;;;;;;;;5032457;28;20472;-78
2023/08/05 03:45:14;;;;;;;3.53;2.05;;;;;;;;;;5004945;28;20083;-77
2023/08/05 03:47:39;;;;;;;3.08;1.67;;;;;;;;;;5026057;28;20101;-78
2023/08/05 03:50:05;;;;;;;3.65;1.90;;;;;;;;;;5022170;28;20081;-78
2023/08/05 03:52:30;;;;;;;4.05;1.98;;;;;;;;;;5021114;28;20030;-78
2023/08/05 03:54:56;;;;;;;4.20;2.47;;;;;;;;;;5019832;28;20030;-78
2023/08/05 03:57:21;;;;;;;3.83;1.80;;;;;;;;;;5036526;28;20034;-78
2023/08/05 03:59:48;;;;;;;4.22;2.10;;;;;;;;;;5017797;28;20028;-78
2023/08/05 04:02:14;;;;;;;5.95;2.33;;;;;;;;;;5027378;28;20026;-77
2023/08/05 04:04:39;;;;;;;5.95;2.03;;;;;;;;;;5033275;28;20033;-77
2023/08/05 04:07:05;;;;;;;3.92;2.15;;;;;;;;;;5019164;28;20030;-78
2023/08/05 04:09:31;;;;;;;3.33;1.80;;;;;;;;;;5018702;28;20045;-78
2023/08/05 04:11:58;;;;;;;4.38;2.00;;;;;;;;;;5034357;28;20034;-78
2023/08/05 04:14:24;;;;;;;4.43;2.10;;;;;;;;;;5035072;28;20055;-78
2023/08/05 04:16:51;;;;;;;2.47;1.50;;;;;;;;;;5018623;28;20038;-78
2023/08/05 04:19:17;;;;;;;4.03;1.67;;;;;;;;;;5025828;28;20065;-78
2023/08/05 04:21:47;;;;;;;4.25;1.80;;;;;;;;;;5025033;28;20428;-78
2023/08/05 04:24:13;;;;;;;2.88;1.48;;;;;;;;;;5017202;28;20480;-77
2023/08/05 04:26:39;;;;;;;3.40;1.58;;;;;;;;;;5021433;28;20072;-78
2023/08/05 04:29:04;;;;;;;5.93;1.90;;;;;;;;;;5020714;28;20030;-78
2023/08/05 04:31:29;;;;;;;3.90;1.60;;;;;;;;;;5021052;28;20037;-78
2023/08/05 04:33:54;;;;;;;2.28;1.52;;;;;;;;;;5021405;28;20034;-79
2023/08/05 04:36:20;;;;;;;4.15;1.58;;;;;;;;;;5023903;28;20034;-78
2023/08/05 04:38:45;;;;;;;4.32;1.60;;;;;;;;;;5018070;28;20037;-78
2023/08/05 04:41:10;;;;;;;4.00;1.65;;;;;;;;;;5014008;28;20022;-78
2023/08/05 04:43:35;;;;;;;2.75;1.40;;;;;;;;;;5021780;28;20034;-78
2023/08/05 04:46:01;;;;;;;4.63;1.75;;;;;;;;;;5022350;28;20064;-78
2023/08/05 04:48:26;;;;;;;3.88;1.70;;;;;;;;;;5024682;28;20112;-78
2023/08/05 04:50:51;;;;;;;4.00;1.60;;;;;;;;;;5025101;28;20038;-78
2023/08/05 04:53:17;;;;;;;3.80;1.60;;;;;;;;;;5029449;28;20041;-78
2023/08/05 04:55:43;;;;;;;4.78;1.92;;;;;;;;;;5029612;28;20065;-78
2023/08/05 04:58:08;;;;;;;5.63;1.85;;;;;;;;;;5038013;28;20046;-78
2023/08/05 05:00:34;;;;;;;3.58;1.63;;;;;;;;;;5037987;28;20112;-78
2023/08/05 05:02:59;;;;;;;3.05;1.38;;;;;;;;;;5030456;28;20503;-78
2023/08/05 05:05:25;;;;;;;3.67;1.95;;;;;;;;;;5031109;28;20034;-78
2023/08/05 05:07:50;;;;;;;4.32;1.88;;;;;;;;;;5030035;28;20033;-78
2023/08/05 05:10:15;;;;;;;5.32;2.00;;;;;;;;;;5045258;28;20100;-79
2023/08/05 05:12:40;;;;;;;2.55;1.40;;;;;;;;;;5030681;28;20029;-78
2023/08/05 05:15:06;;;;;;;3.37;1.97;;;;;;;;;;5046170;28;20030;-78
2023/08/05 05:17:35;;;;;;;3.60;1.67;;;;;;;;;;5037757;28;20303;-79
2023/08/05 05:20:01;;;;;;;3.17;1.58;;;;;;;;;;5037463;28;20044;-78
2023/08/05 05:22:26;;;;;;;3.80;1.48;;;;;;;;;;5031632;28;20030;-78
2023/08/05 05:24:52;;;;;;;2.85;1.50;;;;;;;;;;5030827;28;20022;-78
2023/08/05 05:27:18;;;;;;;2.78;1.50;;;;;;;;;;5045780;28;20484;-79
2023/08/05 05:29:43;;;;;;;2.92;1.42;;;;;;;;;;5029298;28;20038;-78
2023/08/05 05:32:08;;;;;;;2.92;1.42;;;;;;;;;;5030714;28;20089;-78
2023/08/05 05:34:34;;;;;;;3.60;1.48;;;;;;;;;;5037751;28;20034;-78
2023/08/05 05:36:59;;;;;;;3.90;1.30;;;;;;;;;;5037476;28;20034;-78
2023/08/05 05:39:24;;;;;;;2.90;1.43;;;;;;;;;;5029239;28;20041;-78
2023/08/05 05:41:49;;;;;;;3.72;1.63;;;;;;;;;;5030413;28;20281;-78
2023/08/05 05:44:14;;;;;;;2.43;1.40;;;;;;;;;;5037144;28;20489;-78
2023/08/05 05:46:40;;;;;;;3.70;1.50;;;;;;;;;;5030357;28;20348;-79
2023/08/05 05:49:05;;;;;;;2.88;1.30;;;;;;;;;;5026898;28;20058;-79
2023/08/05 05:51:31;;;;;;;3.72;1.40;;;;;;;;;;5031989;28;20113;-79
2023/08/05 05:53:57;;;;;;;3.53;1.40;;;;;;;;;;5030873;28;20045;-78
2023/08/05 05:56:22;;;;;;;3.45;1.48;;;;;;;;;;5026556;28;20030;-78
2023/08/05 05:58:48;;;;;;;1.65;1.00;;;;;;;;;;5022960;28;20050;-78
2023/08/05 06:01:13;;;;;;;2.58;1.27;;;;;;;;;;5027041;28;20041;-79
2023/08/05 06:03:39;;;;;;;2.78;1.33;;;;;;;;;;5030764;28;20042;-79
2023/08/05 06:06:04;;;;;;;3.05;1.40;;;;;;;;;;5034491;28;20022;-79
2023/08/05 06:08:29;;;;;;;3.38;1.30;;;;;;;;;;5037832;28;20063;-79
2023/08/05 06:10:55;;;;;;;3.08;1.42;;;;;;;;;;5029038;28;20034;-79
2023/08/05 06:13:20;;;;;;;3.15;1.45;;;;;;;;;;5028811;28;20036;-79
2023/08/05 06:15:46;;;;;;;2.25;1.02;;;;;;;;;;5030059;28;20037;-79
2023/08/05 06:18:11;;;;;;;3.67;1.55;;;;;;;;;;5036008;28;20037;-79
2023/08/05 06:20:36;;;;;;;3.67;1.45;;;;;;;;;;5021890;28;20034;-79
2023/08/05 06:23:02;;;;;;;3.92;1.48;;;;;;;;;;5025948;28;20033;-79
2023/08/05 06:25:28;;;;;;;3.08;1.17;;;;;;;;;;5033314;28;20033;-79
2023/08/05 06:27:53;;;;;;;3.55;1.70;;;;;;;;;;5039435;28;20038;-79
2023/08/05 06:30:18;;;;;;;4.65;1.10;;;;;;;;;;5031882;28;20044;-79
2023/08/05 06:32:43;;;;;;;4.38;1.30;;;;;;;;;;5031163;28;20026;-79
2023/08/05 06:35:08;;;;;;;3.38;1.50;;;;;;;;;;5031982;28;20037;-79
2023/08/05 06:37:34;;;;;;;6.80;1.02;;;;;;;;;;5031239;28;20025;-79
2023/08/05 06:39:59;;;;;;;3.70;1.50;;;;;;;;;;5030785;28;20038;-79
2023/08/05 06:42:25;;;;;;;3.25;1.10;;;;;;;;;;5031140;28;20056;-79
2023/08/05 06:44:51;;;;;;;4.93;1.20;;;;;;;;;;5028593;28;20030;-79
2023/08/05 06:47:16;;;;;;;2.85;1.40;;;;;;;;;;5030965;28;20053;-79
2023/08/05 06:49:41;;;;;;;2.50;1.05;;;;;;;;;;5029815;28;20029;-79
2023/08/05 06:52:07;;;;;;;4.68;2.03;;;;;;;;;;5030512;28;20036;-79
2023/08/05 06:54:32;;;;;;;3.03;1.08;;;;;;;;;;5038981;28;20030;-79
2023/08/05 06:56:58;;;;;;;3.78;1.40;;;;;;;;;;5029734;28;20038;-79
2023/08/05 06:59:23;;;;;;;3.20;1.33;;;;;;;;;;5026545;28;20121;-79
2023/08/05 07:01:48;;;;;;;2.13;0.85;;;;;;;;;;5023170;28;20033;-79
2023/08/05 07:04:14;;;;;;;2.67;1.00;;;;;;;;;;5028897;28;20026;-79
2023/08/05 07:06:40;;;;;;;3.28;1.23;;;;;;;;;;5027881;28;20026;-79
2023/08/05 07:09:05;;;;;;;2.35;0.90;;;;;;;;;;5028767;28;20476;-79
2023/08/05 07:11:31;;;;;;;3.95;1.50;;;;;;;;;;5036455;28;20045;-79
2023/08/05 07:13:56;;;;;;;5.75;0.80;;;;;;;;;;5030028;28;20033;-79
2023/08/05 07:16:21;;;;;;;4.68;1.13;;;;;;;;;;5032651;28;20033;-79
2023/08/05 07:18:46;;;;;;;3.90;1.07;;;;;;;;;;5030129;28;20037;-79
2023/08/05 07:21:12;;;;;;;2.47;1.10;;;;;;;;;;5032286;28;20276;-79
2023/08/05 07:23:37;;;;;;;2.75;0.90;;;;;;;;;;5029945;28;20296;-79
2023/08/05 07:26:02;;;;;;;6.38;1.33;;;;;;;;;;5029419;28;20030;-79
2023/08/05 07:28:27;;;;;;;4.55;1.25;;;;;;;;;;5030050;28;20033;-79
2023/08/05 07:31:05;;;;;;;4.17;1.30;;;;;;;;;;5028526;28;20056;-79
2023/08/05 07:33:31;;;;;;;4.70;1.33;;;;;;;;;;5025809;28;20332;-79
2023/08/05 07:35:56;;;;;;;3.30;1.00;;;;;;;;;;5028903;28;20029;-79
2023/08/05 07:38:25;;;;;;;4.00;1.10;;;;;;;;;;5028670;28;20089;-80
2023/08/05 07:40:53;;;;;;;2.33;1.00;;;;;;;;;;5023522;28;20045;-79
2023/08/05 07:43:21;;;;;;;3.65;1.40;;;;;;;;;;5032681;28;20081;-79
2023/08/05 07:45:46;;;;;;;2.80;0.90;;;;;;;;;;5028054;28;20026;-79
2023/08/05 07:48:12;;;;;;;2.60;1.17;;;;;;;;;;5028290;28;20268;-79
2023/08/05 07:50:37;;;;;;;5.75;1.15;;;;;;;;;;5026487;28;20269;-79
2023/08/05 07:53:05;;;;;;;4.00;1.20;;;;;;;;;;5038944;28;20042;-79
2023/08/05 07:55:32;;;;;;;3.05;1.40;;;;;;;;;;5027595;28;20102;-79
2023/08/05 07:57:57;;;;;;;4.47;1.90;;;;;;;;;;5027042;28;20022;-79
2023/08/05 08:00:23;;;;;;;3.10;1.23;;;;;;;;;;5027757;28;20034;-79
2023/08/05 08:02:50;;;;;;;3.30;1.52;;;;;;;;;;5028363;28;20030;-79
2023/08/05 08:05:15;;;;;;;3.78;1.40;;;;;;;;;;5029087;28;20403;-79
2023/08/05 08:07:46;;;;;;;5.03;1.40;;;;;;;;;;5026881;28;20037;-80
2023/08/05 08:10:12;;;;;;;5.97;1.75;;;;;;;;;;5030999;28;20485;-79
2023/08/05 08:12:37;;;;;;;2.67;1.10;;;;;;;;;;5042360;28;20038;-80
2023/08/05 08:15:03;;;;;;;2.22;1.15;;;;;;;;;;5027510;28;20029;-79
2023/08/05 08:17:28;;;;;;;2.92;1.27;;;;;;;;;;5042671;28;20038;-80
2023/08/05 08:19:53;;;;;;;2.72;1.10;;;;;;;;;;5026444;28;20032;-79
2023/08/05 08:22:18;;;;;;;2.37;0.93;;;;;;;;;;5026394;28;20447;-80
2023/08/05 08:24:44;;;;;;;2.67;1.30;;;;;;;;;;5031055;28;20291;-79
2023/08/05 08:27:09;;;;;;;2.70;1.17;;;;;;;;;;5031433;28;20265;-79
2023/08/05 08:29:34;;;;;;;3.63;1.30;;;;;;;;;;5026626;28;20057;-80
2023/08/05 08:31:59;;;;;;;3.00;1.25;;;;;;;;;;5027892;28;20287;-78
2023/08/05 08:34:24;;;;;;;3.40;1.03;;;;;;;;;;5032144;28;20086;-79
2023/08/05 08:36:50;;;;;;;2.45;1.30;;;;;;;;;;5032141;28;20890;-79
2023/08/05 08:39:15;;;;;;;3.42;1.45;;;;;;;;;;5032515;28;20030;-79
2023/08/05 08:41:44;;;;;;;2.50;1.40;;;;;;;;;;5023424;28;20033;-79
2023/08/05 08:44:09;;;;;;;2.28;1.10;;;;;;;;;;5030326;28;20034;-80
2023/08/05 08:46:35;;;;;;;3.97;1.77;;;;;;;;;;5038512;28;20052;-79
2023/08/05 08:49:00;;;;;;;3.65;1.20;;;;;;;;;;5032115;28;20030;-79
2023/08/05 08:51:26;;;;;;;3.70;1.30;;;;;;;;;;5033901;28;20022;-78
2023/08/05 08:53:51;;;;;;;4.22;1.58;;;;;;;;;;5035903;28;20288;-79
2023/08/05 08:56:16;;;;;;;3.63;1.10;;;;;;;;;;5040204;28;20030;-79
2023/08/05 08:58:41;;;;;;;3.23;1.20;;;;;;;;;;5031254;28;20522;-79
2023/08/05 09:01:07;;;;;;;3.83;1.53;;;;;;;;;;5030775;28;20365;-79
2023/08/05 09:03:33;;;;;;;2.95;1.25;;;;;;;;;;5031389;28;20305;-79
2023/08/05 09:05:59;;;;;;;4.20;1.25;;;;;;;;;;5032039;28;20038;-79
2023/08/05 09:08:24;;;;;;;2.72;1.20;;;;;;;;;;5039035;28;20057;-79
2023/08/05 09:10:49;;;;;;;4.82;1.20;;;;;;;;;;5031737;28;20513;-79
2023/08/05 09:13:19;;;;;;;2.17;1.03;;;;;;;;;;5032756;28;20034;-79
2023/08/05 09:15:45;;;;;;;2.78;1.30;;;;;;;;;;5031668;28;20261;-79
2023/08/05 09:18:10;;;;;;;5.25;1.58;;;;;;;;;;5025314;28;20036;-80
2023/08/05 09:20:36;;;;;;;2.65;1.20;;;;;;;;;;5028820;28;20085;-80
2023/08/05 09:23:02;;;;;;;2.60;1.17;;;;;;;;;;5030931;28;20034;-80
2023/08/05 09:25:31;;;;;;;3.25;1.20;;;;;;;;;;5028818;28;20033;-80
2023/08/05 09:27:57;;;;;;;3.97;1.17;;;;;;;;;;5029538;28;20038;-80
2023/08/05 09:30:23;;;;;;;2.22;1.00;;;;;;;;;;5029455;28;20045;-80
2023/08/05 09:32:49;;;;;;;3.35;1.27;;;;;;;;;;5043980;28;20046;-80
2023/08/05 09:35:15;;;;;;;3.50;1.30;;;;;;;;;;5027752;28;20033;-80
2023/08/05 09:37:44;;;;;;;3.95;1.45;;;;;;;;;;5026729;28;20065;-80
2023/08/05 09:40:17;;;;;;;4.72;1.15;;;;;;;;;;5023863;28;20053;-80
2023/08/05 09:42:47;;;;;;;2.88;1.00;;;;;;;;;;5030105;28;20038;-80
2023/08/05 09:45:12;;;;;;;3.65;1.35;;;;;;;;;;5023670;28;20033;-80
2023/08/05 09:47:38;;;;;;;2.38;1.17;;;;;;;;;;5022505;28;20044;-81
2023/08/05 09:50:07;;;;;;;2.25;1.00;;;;;;;;;;5008158;28;20038;-80
2023/08/05 09:52:33;;;;;;;5.68;1.27;;;;;;;;;;5006338;28;20401;-81
2023/08/05 09:54:58;;;;;;;2.47;1.02;;;;;;;;;;5009695;28;20026;-81
2023/08/05 09:57:24;;;;;;;4.03;1.00;;;;;;;;;;5007616;28;20026;-80
2023/08/05 09:59:51;;;;;;;2.75;0.90;;;;;;;;;;5010885;28;20300;-81
2023/08/05 10:02:19;;;;;;;2.58;0.90;;;;;;;;;;5012035;28;20049;-81
2023/08/05 10:04:44;;;;;;;2.60;1.27;;;;;;;;;;5029308;28;20030;-80
2023/08/05 10:07:10;;;;;;;3.30;1.40;;;;;;;;;;5006876;28;20026;-80
2023/08/05 10:09:35;;;;;;;2.97;1.10;;;;;;;;;;5002964;28;20038;-80
2023/08/05 10:12:02;;;;;;;1.77;0.90;;;;;;;;;;5004796;28;20026;-79
2023/08/05 10:14:27;;;;;;;4.63;1.02;;;;;;;;;;5007768;28;20121;-80
2023/08/05 10:16:53;;;;;;;3.65;1.27;;;;;;;;;;5016819;28;20066;-80
2023/08/05 10:19:28;;;;;;;2.95;0.88;;;;;;;;;;5017520;28;20045;-80
2023/08/05 10:22:06;;;;;;;1.63;0.77;;;;;;;;;;5011135;28;20058;-80
2023/08/05 10:24:48;;;;;;;3.28;1.00;;;;;;;;;;5004864;28;20065;-80
2023/08/05 10:27:14;;;;;;;3.63;1.25;;;;;;;;;;5016963;28;20041;-80
2023/08/05 10:29:50;;;;;;;3.67;1.37;;;;;;;;;;5005493;28;20026;-80
2023/08/05 10:32:15;;;;;;;1.70;0.80;;;;;;;;;;5006936;28;20659;-80
2023/08/05 10:34:40;;;;;;;4.03;1.52;;;;;;;;;;5028622;28;20037;-80
2023/08/05 10:37:06;;;;;;;1.45;0.80;;;;;;;;;;5003554;28;20061;-81
2023/08/05 10:39:40;;;;;;;2.40;1.00;;;;;;;;;;5010268;28;20041;-81
2023/08/05 10:42:21;;;;;;;2.50;1.02;;;;;;;;;;5018237;28;20382;-80
2023/08/05 10:44:49;;;;;;;3.63;0.98;;;;;;;;;;5005971;28;20034;-82
2023/08/05 10:47:18;;;;;;;2.50;0.93;;;;;;;;;;5003350;28;20125;-81
2023/08/05 10:49:43;;;;;;;2.10;1.10;;;;;;;;;;5008344;28;20034;-81
2023/08/05 10:52:14;;;;;;;2.85;1.00;;;;;;;;;;5008828;28;20117;-80
2023/08/05 10:54:40;;;;;;;2.33;0.70;;;;;;;;;;5005628;28;20365;-80
2023/08/05 10:57:27;;;;;;;2.90;1.08;;;;;;;;;;5002967;28;20172;-80
2023/08/05 10:59:56;;;;;;;3.45;1.33;;;;;;;;;;5022493;28;20488;-80
2023/08/05 11:02:21;;;;;;;3.72;1.27;;;;;;;;;;5003864;28;20161;-79
2023/08/05 11:04:47;;;;;;;2.65;0.90;;;;;;;;;;5006407;28;20124;-80
2023/08/05 11:07:12;;;;;;;4.57;1.38;;;;;;;;;;5008769;28;20037;-80
2023/08/05 11:09:39;;;;;;;2.63;1.07;;;;;;;;;;5005438;28;20022;-81
2023/08/05 11:12:04;;;;;;;2.45;1.00;;;;;;;;;;5006854;28;20411;-81
2023/08/05 11:14:30;;;;;;;3.90;1.10;;;;;;;;;;5007634;28;20513;-79
2023/08/05 11:17:07;;;;;;;4.80;1.38;;;;;;;;;;5018705;28;20112;-81
2023/08/05 11:19:56;;;;;;;2.70;0.88;;;;;;;;;;5018834;28;20033;-81
2023/08/05 11:22:26;;;;;;;3.45;1.20;;;;;;;;;;5000146;28;20050;-80
2023/08/05 11:25:01;;;;;;;2.75;1.10;;;;;;;;;;5018936;28;20023;-79
2023/08/05 11:27:31;;;;;;;2.20;0.90;;;;;;;;;;5001661;28;20105;-80
2023/08/05 11:29:56;;;;;;;3.78;1.00;;;;;;;;;;5003124;28;20030;-81
2023/08/05 11:32:21;;;;;;;2.58;1.05;;;;;;;;;;5001121;28;20513;-80
2023/08/05 11:34:48;;;;;;;2.93;1.17;;;;;;;;;;5003235;28;20109;-80
2023/08/05 11:37:14;;;;;;;2.92;0.80;;;;;;;;;;5002177;28;20284;-80
2023/08/05 11:39:39;;;;;;;2.20;1.00;;;;;;;;;;5007041;28;20040;-79
2023/08/05 11:42:05;;;;;;;2.47;0.80;;;;;;;;;;5006404;28;20364;-80
2023/08/05 11:44:30;;;;;;;3.53;0.88;;;;;;;;;;5030503;28;20277;-80
2023/08/05 11:47:00;;;;;;;2.35;0.65;;;;;;;;;;5002210;28;20041;-80
2023/08/05 11:49:26;;;;;;;1.90;0.60;;;;;;;;;;5007910;28;20023;-81
2023/08/05 11:51:51;;;;;;;1.87;0.80;;;;;;;;;;5003983;28;20038;-81
2023/08/05 11:54:28;;;;;;;3.53;0.77;;;;;;;;;;5003038;28;20277;-81
2023/08/05 11:56:53;;;;;;;2.85;0.85;;;;;;;;;;5000025;28;20051;-78
2023/08/05 11:59:35;;;;;;;2.65;0.90;;;;;;;;;;5000755;28;20049;-78
2023/08/05 12:02:01;;;;;;;2.55;0.90;;;;;;;;;;5001612;28;20035;-78
2023/08/05 12:04:26;;;;;;;1.70;1.00;;;;;;;;;;5001711;28;20113;-78
2023/08/05 12:06:53;;;;;;;1.65;0.80;;;;;;;;;;5001370;28;20101;-77
2023/08/05 12:09:18;;;;;;;2.45;1.05;;;;;;;;;;5008800;28;20042;-77
2023/08/05 12:11:46;;;;;;;3.03;1.15;;;;;;;;;;5018768;28;20389;-77
2023/08/05 12:14:12;;;;;;;2.10;1.05;;;;;;;;;;5011463;28;20030;-77
2023/08/05 12:16:37;;;;;;;3.53;0.88;;;;;;;;;;5011390;28;20101;-77
2023/08/05 12:19:03;;;;;;;4.15;1.00;;;;;;;;;;5017400;28;20030;-77
2023/08/05 12:21:28;;;;;;;2.70;1.00;;;;;;;;;;5011963;28;20030;-76
2023/08/05 12:23:53;;;;;;;3.42;1.00;;;;;;;;;;5011048;28;20296;-77
2023/08/05 12:26:24;;;;;;;2.25;0.90;;;;;;;;;;5011085;28;20030;-77
2023/08/05 12:28:50;;;;;;;2.83;1.13;;;;;;;;;;5011074;28;20033;-78
2023/08/05 12:31:15;;;;;;;2.00;0.83;;;;;;;;;;5011997;28;20468;-77
2023/08/05 12:33:40;;;;;;;5.07;1.47;;;;;;;;;;5011766;28;20312;-78
2023/08/05 12:36:05;;;;;;;2.23;1.23;;;;;;;;;;5012219;28;20325;-78
2023/08/05 12:38:30;;;;;;;3.47;0.95;;;;;;;;;;5011129;28;20647;-78
2023/08/05 12:40:56;;;;;;;3.90;1.10;;;;;;;;;;5010888;28;20116;-77
2023/08/05 12:43:21;;;;;;;2.33;1.30;;;;;;;;;;5011525;28;20797;-77
2023/08/05 12:45:46;;;;;;;2.97;1.10;;;;;;;;;;5008109;28;20288;-77
2023/08/05 12:48:11;;;;;;;3.08;1.40;;;;;;;;;;5010615;28;20276;-78
2023/08/05 12:50:36;;;;;;;2.80;1.33;;;;;;;;;;5014953;28;20029;-78
2023/08/05 12:53:02;;;;;;;3.50;1.43;;;;;;;;;;5013117;28;20036;-77
2023/08/05 12:55:27;;;;;;;3.72;1.25;;;;;;;;;;5011951;28;20300;-78
2023/08/05 12:57:52;;;;;;;2.43;1.10;;;;;;;;;;5012491;28;20543;-77
2023/08/05 13:00:17;;;;;;;5.28;1.40;;;;;;;;;;5010612;28;20276;-77
2023/08/05 13:02:46;;;;;;;3.83;1.60;;;;;;;;;;5011777;28;20105;-78
2023/08/05 13:05:11;;;;;;;4.00;1.10;;;;;;;;;;5012516;28;20277;-78
2023/08/05 13:07:36;;;;;;;2.90;1.30;;;;;;;;;;5012231;28;20467;-78
2023/08/05 13:10:01;;;;;;;3.28;1.25;;;;;;;;;;5021487;28;21006;-78
2023/08/05 13:12:27;;;;;;;2.72;1.08;;;;;;;;;;5017098;28;20040;-78
2023/08/05 13:14:52;;;;;;;2.40;1.30;;;;;;;;;;5013998;28;20058;-78
2023/08/05 13:17:17;;;;;;;2.95;1.25;;;;;;;;;;5012656;28;20392;-78
2023/08/05 13:19:43;;;;;;;2.92;1.33;;;;;;;;;;5014224;28;20032;-78
2023/08/05 13:22:08;;;;;;;3.17;1.25;;;;;;;;;;5015642;28;20675;-78
2023/08/05 13:24:33;;;;;;;3.07;1.10;;;;;;;;;;5014513;28;20108;-77
2023/08/05 13:26:59;;;;;;;2.05;1.00;;;;;;;;;;5014364;28;20362;-78
2023/08/05 13:29:24;;;;;;;5.30;1.63;;;;;;;;;;5013637;28;20412;-77
2023/08/05 13:31:49;;;;;;;3.63;1.48;;;;;;;;;;5014335;28;20021;-77
2023/08/05 13:34:15;;;;;;;5.87;1.33;;;;;;;;;;5014056;28;20034;-77
2023/08/05 13:36:40;;;;;;;2.20;1.13;;;;;;;;;;5014098;28;20348;-78
2023/08/05 13:39:05;;;;;;;3.83;1.55;;;;;;;;;;5013537;28;20030;-77
2023/08/05 13:41:31;;;;;;;2.50;1.35;;;;;;;;;;5013734;28;20022;-76
2023/08/05 13:43:56;;;;;;;2.90;1.20;;;;;;;;;;5015017;28;20033;-78
2023/08/05 13:46:21;;;;;;;3.08;1.27;;;;;;;;;;5015223;28;20037;-78
2023/08/05 13:48:46;;;;;;;2.08;1.10;;;;;;;;;;5029034;28;20041;-78
2023/08/05 13:51:12;;;;;;;2.78;1.30;;;;;;;;;;5014056;28;20488;-78
2023/08/05 13:53:37;;;;;;;3.03;1.52;;;;;;;;;;5028336;28;20125;-78
2023/08/05 13:56:03;;;;;;;2.20;1.40;;;;;;;;;;5013663;28;20030;-77
2023/08/05 13:58:28;;;;;;;2.35;1.00;;;;;;;;;;5013644;28;20411;-77
2023/08/05 14:00:54;;;;;;;2.50;1.15;;;;;;;;;;5020913;28;20096;-78
2023/08/05 14:03:20;;;;;;;2.40;0.90;;;;;;;;;;5020153;28;20059;-77
2023/08/05 14:05:45;;;;;;;3.92;1.45;;;;;;;;;;5013637;28;20554;-77
2023/08/05 14:08:10;;;;;;;3.10;1.20;;;;;;;;;;5013112;28;20061;-77
2023/08/05 14:10:36;;;;;;;2.90;1.20;;;;;;;;;;5012702;28;20038;-77
2023/08/05 14:13:01;;;;;;;3.95;1.35;;;;;;;;;;5012566;28;20621;-77
2023/08/05 14:15:26;;;;;;;2.50;1.20;;;;;;;;;;5028218;28;20065;-77
2023/08/05 14:17:51;;;;;;;2.40;1.00;;;;;;;;;;5028359;28;20037;-77
2023/08/05 14:20:19;;;;;;;2.97;1.15;;;;;;;;;;5011756;28;20273;-76
2023/08/05 14:22:44;;;;;;;2.65;1.20;;;;;;;;;;5022207;28;20037;-77
2023/08/05 14:25:09;;;;;;;3.75;1.27;;;;;;;;;;5012876;28;20041;-77
2023/08/05 14:27:35;;;;;;;2.40;0.83;;;;;;;;;;5013159;28;20041;-78
2023/08/05 14:30:00;;;;;;;2.10;1.13;;;;;;;;;;5013025;28;20273;-79
2023/08/05 14:32:25;;;;;;;2.47;1.00;;;;;;;;;;5013478;28;20269;-78
2023/08/05 14:34:52;;;;;;;2.53;1.00;;;;;;;;;;5013416;28;20061;-78
2023/08/05 14:37:18;;;;;;;2.42;0.95;;;;;;;;;;5009481;28;20645;-77